Göteborg, Sweden

10:56 PM CEST am 24. April 2017 (GMT +0200)
Gothenburg | | Change Station

Höhe 0 ft 57.70 °N, 12.01 °E | Updated 9 minutes ago

Teils Wolkig
Teils Wolkig
40.1 °F
gefühlte 37 °F
N
5.0
Wind Wechselnd Wind aus Nordost
Gusts 14.9 mph

Heute
Max. -- | schwach -- °F
--% Regenrisiko
Gestern
Max. -- | schwach -- °F
Precip. -- inch
Druck 29.39 inch
Sichtweite 6.2 Meilen
Wolken Few 4100 ft
Windchill 37 °F
Taupunkt 26 °F
Feuchtigkeit 57%
Regen 0.61 inch
Schneehöhe Nicht verfügbar..
5:38 AM 8:43 PM
Letztes Viertel, 4% visible
METAR ESGG 242050Z 26015G27KT 9999 FEW041 03/M05 Q0995
Druck 29.39 inch
Sichtweite 6.2 Meilen
Wolken Few 4100 ft
Windchill 37 °F
Taupunkt 26 °F
Feuchtigkeit 57%
Regen 0.61 inch
Schneehöhe Nicht verfügbar..
5:38 AM 8:43 PM
Letztes Viertel, 4% visible
METAR ESGG 242050Z 26015G27KT 9999 FEW041 03/M05 Q0995

Get Severe Weather Alerts

Thanks for signing up!

Be on the lookout for a verification email in your inbox.

You'll start receiving the daily forecast at 8 AM.

×

10-Day Weather Forecast

×

Almanac

Astronomie

Apr. 24, 2017 Aufgang Untergang
Genaue Zeit
Bürgerliche Dämmerung
Nautische Dämmerung
Astronomische Dämmerung
Mond
Länge des sichtbaren Lichts
Tageslänge
Tomorrow will be .
, % of the Moon is Illuminated

Heutige Rekorde

Country Highs Country Lows

Community

WunderPhotos

WunderBlog® & News

Nearby

Luftqualität

  Luftqualität LQ Index Schadstoff
Not available.

Schneehöhe

Station Depth Höhe

Erdbebenaktivität

Stadt Distance Mag. Time & Date
Minimum magnitude displayed is 2.5.

küstennahe Wassertemperaturen

Ort Temperatur

Stations

Wetterstationen in der Umgebung

Stationsstandort Temp. Windchill Taupunkt Feuchtigkeit Wind Precip. Höhe Aktualisiert Art